createdAt,value
2022-11-29T00:01:31.965Z,95216.78
2022-11-29T00:04:35.206Z,95218.66
2022-11-29T00:07:39.613Z,95218.66
2022-11-29T00:10:42.764Z,95218.66
2022-11-29T00:13:45.825Z,95224.25
2022-11-29T00:16:52.279Z,95225.84
2022-11-29T00:19:55.331Z,95231.47
2022-11-29T00:22:59.761Z,95221.28
2022-11-29T00:26:06.448Z,95225.66
2022-11-29T00:35:15.274Z,95218.56
2022-11-29T00:38:19.761Z,95237.06
2022-11-29T00:41:22.920Z,95228.00
2022-11-29T00:44:26.017Z,95223.47
2022-11-29T00:47:28.988Z,95225.44
2022-11-29T00:50:32.063Z,95222.50
2022-11-29T00:53:37.384Z,95229.88
2022-11-29T00:56:40.385Z,95232.84
2022-11-29T00:59:43.431Z,95233.81
2022-11-29T01:02:47.499Z,95228.00
2022-11-29T01:05:50.939Z,95226.44
2022-11-29T01:08:55.319Z,95220.31
2022-11-29T01:11:58.385Z,95222.69
2022-11-29T01:15:01.413Z,95216.56
2022-11-29T01:18:04.527Z,95217.16
2022-11-29T01:21:10.010Z,95216.88
2022-11-29T01:27:17.288Z,95205.75
2022-11-29T01:30:20.669Z,95213.91
2022-11-29T01:33:24.343Z,95212.03
2022-11-29T01:36:28.803Z,95208.59
2022-11-29T01:39:33.187Z,95205.94
2022-11-29T01:42:36.275Z,95206.72
2022-11-29T01:45:40.537Z,95201.41
2022-11-29T01:48:43.577Z,95200.63
2022-11-29T01:51:49.866Z,95196.38
2022-11-29T01:54:57.445Z,95192.94
2022-11-29T01:58:01.548Z,95184.47
2022-11-29T02:01:04.682Z,95187.91
2022-11-29T02:04:08.376Z,95171.03
2022-11-29T02:07:11.606Z,95176.28
2022-11-29T02:10:16.844Z,95180.72
2022-11-29T02:13:30.025Z,95171.47
2022-11-29T02:16:39.111Z,95176.19
2022-11-29T02:20:05.750Z,95170.75
2022-11-29T02:23:29.411Z,95181.50
2022-11-29T02:26:56.337Z,95177.75
2022-11-29T02:30:16.583Z,95176.97
2022-11-29T02:34:00.564Z,95181.81
2022-11-29T02:37:23.630Z,95185.25
2022-11-29T02:40:48.403Z,95185.25
2022-11-29T02:44:17.432Z,95187.63
2022-11-29T02:47:28.669Z,95191.66
2022-11-29T02:50:42.711Z,95195.41
2022-11-29T02:53:52.575Z,95190.06
2022-11-29T02:57:00.269Z,95194.31
2022-11-29T03:00:07.887Z,95188.22
2022-11-29T03:03:18.804Z,95186.63
2022-11-29T03:06:33.798Z,95185.53
2022-11-29T03:09:41.258Z,95188.22
2022-11-29T03:12:48.639Z,95191.94
2022-11-29T03:16:00.324Z,95170.25
2022-11-29T03:19:16.491Z,95194.59
2022-11-29T03:22:32.946Z,95193.53
2022-11-29T03:25:41.500Z,95197.28
2022-11-29T03:28:50.922Z,95201.81
2022-11-29T03:32:02.102Z,95187.00
2022-11-29T03:35:14.385Z,95185.41
2022-11-29T03:38:28.160Z,95203.69
2022-11-29T03:41:38.160Z,95212.44
2022-11-29T03:44:47.924Z,95202.59
2022-11-29T03:47:58.864Z,95201.00
2022-11-29T03:51:08.642Z,95202.41
2022-11-29T03:54:19.023Z,95206.34
2022-11-29T03:57:32.042Z,95198.44
2022-11-29T04:00:57.767Z,95197.28
2022-11-29T04:04:21.230Z,95199.94
2022-11-29T04:07:36.851Z,95193.34
2022-11-29T04:11:05.498Z,95193.53
2022-11-29T04:14:55.875Z,95205.75
2022-11-29T04:18:31.008Z,95204.66
2022-11-29T04:22:04.664Z,95207.03
2022-11-29T04:25:39.618Z,95212.63
2022-11-29T04:29:12.724Z,95214.22
2022-11-29T04:32:34.989Z,95202.97
2022-11-29T04:35:52.485Z,95216.38
2022-11-29T04:39:23.788Z,95211.06
2022-11-29T04:42:46.104Z,95213.44
2022-11-29T04:46:14.071Z,95217.03
2022-11-29T04:49:43.801Z,95216.75
2022-11-29T04:53:19.015Z,95209.16
2022-11-29T04:56:32.413Z,95200.19
2022-11-29T04:59:45.238Z,95190.53
2022-11-29T05:02:55.950Z,95192.63
2022-11-29T05:06:08.167Z,95195.47
2022-11-29T05:09:23.391Z,95207.50
2022-11-29T05:12:34.400Z,95198.75
2022-11-29T05:15:54.093Z,95202.63
2022-11-29T05:19:18.247Z,95200.19
2022-11-29T05:22:41.600Z,95207.94
2022-11-29T05:25:51.636Z,95214.13
2022-11-29T05:29:02.955Z,95205.16
2022-11-29T05:32:23.985Z,95210.47
2022-11-29T05:36:01.911Z,95200.28
2022-11-29T05:39:23.384Z,95209.78
2022-11-29T05:42:45.969Z,95214.38
2022-11-29T05:45:53.247Z,95213.03
2022-11-29T05:49:06.448Z,95218.34
2022-11-29T05:52:48.953Z,95216.75
2022-11-29T05:56:01.799Z,95220.72
2022-11-29T05:59:09.503Z,95210.44
2022-11-29T06:02:29.608Z,95214.19
2022-11-29T06:05:37.909Z,95216.75
2022-11-29T06:08:48.928Z,95218.34
2022-11-29T06:11:58.784Z,95207.41
2022-11-29T06:15:23.488Z,95215.59
2022-11-29T06:18:42.808Z,95216.38
2022-11-29T06:21:55.982Z,95212.03
2022-11-29T06:25:17.262Z,95206.81
2022-11-29T06:28:36.910Z,95218.75
2022-11-29T06:31:45.241Z,95231.75
2022-11-29T06:34:55.703Z,95216.47
2022-11-29T06:38:02.210Z,95216.88
2022-11-29T06:41:05.847Z,95216.38
2022-11-29T06:44:11.524Z,95218.56
2022-11-29T06:47:23.278Z,95219.63
2022-11-29T06:50:38.852Z,95220.91
2022-11-29T06:53:49.681Z,95214.88
2022-11-29T06:57:00.865Z,95230.97
2022-11-29T07:00:12.080Z,95215.16
2022-11-29T07:03:33.144Z,95225.44
2022-11-29T07:06:37.060Z,95232.94
2022-11-29T07:09:41.011Z,95232.34
2022-11-29T07:12:44.965Z,95232.34
2022-11-29T07:15:58.176Z,95227.81
2022-11-29T07:19:19.998Z,95237.38
2022-11-29T07:22:40.837Z,95233.91
2022-11-29T07:25:54.460Z,95235.00
2022-11-29T07:29:11.066Z,95240.81
2022-11-29T07:32:25.171Z,95233.72
2022-11-29T07:38:48.388Z,95243.19
2022-11-29T07:42:01.805Z,95245.06
2022-11-29T07:45:16.404Z,95249.28
2022-11-29T07:48:20.805Z,95247.41
2022-11-29T07:51:23.938Z,95243.97
2022-11-29T07:54:27.206Z,95247.41
2022-11-29T08:00:33.096Z,95238.66
2022-11-29T08:03:37.815Z,95246.53
2022-11-29T08:06:40.893Z,95243.19
2022-11-29T08:09:44.320Z,95253.03
2022-11-29T08:12:50.347Z,95250.66
2022-11-29T08:15:53.401Z,95247.22
2022-11-29T08:18:57.801Z,95242.97
2022-11-29T08:22:00.760Z,95244.66
2022-11-29T08:25:04.230Z,95248.59
2022-11-29T08:28:07.525Z,95247.81
2022-11-29T08:31:12.503Z,95244.56
2022-11-29T08:34:16.979Z,95245.63
2022-11-29T08:37:19.987Z,95230.34
2022-11-29T08:40:24.248Z,95239.34
2022-11-29T08:43:27.455Z,95246.44
2022-11-29T08:46:44.296Z,95248.31
2022-11-29T08:50:03.816Z,95245.63
2022-11-29T08:53:24.246Z,95243.78
2022-11-29T08:59:50.338Z,95250.47
2022-11-29T09:02:53.291Z,95243.28
2022-11-29T09:05:57.836Z,95230.84
2022-11-29T09:09:02.055Z,95238.16
2022-11-29T09:12:08.645Z,95238.44
2022-11-29T09:15:12.704Z,95241.91
2022-11-29T09:18:15.758Z,95233.91
2022-11-29T09:21:20.395Z,95236.88
2022-11-29T09:24:23.472Z,95227.31
2022-11-29T09:27:27.035Z,95227.03
2022-11-29T09:30:34.131Z,95229.59
2022-11-29T09:33:37.575Z,95223.09
2022-11-29T09:36:44.065Z,95224.69
2022-11-29T09:39:47.320Z,95214.03
2022-11-29T09:43:02.030Z,95212.47
2022-11-29T09:46:16.281Z,95209.28
2022-11-29T09:49:47.985Z,95215.63
2022-11-29T09:53:04.685Z,95200.22
2022-11-29T09:56:17.260Z,95194.69
2022-11-29T09:59:24.904Z,95189.38
2022-11-29T10:02:37.138Z,95197.06
2022-11-29T10:05:46.661Z,95193.31
2022-11-29T10:08:55.324Z,95189.88
2022-11-29T10:12:07.091Z,95188.59
2022-11-29T10:15:16.965Z,95178.75
2022-11-29T10:18:23.942Z,95175.28
2022-11-29T10:24:35.770Z,95171.66
2022-11-29T10:27:41.684Z,95169.00
2022-11-29T10:30:45.764Z,95167.13
2022-11-29T10:33:49.823Z,95164.28
2022-11-29T10:36:58.756Z,95166.13
2022-11-29T10:40:08.108Z,95161.31
2022-11-29T10:43:11.344Z,95166.94
2022-11-29T10:46:20.416Z,95166.94
2022-11-29T10:49:28.262Z,95155.56
2022-11-29T10:52:31.332Z,95152.91
2022-11-29T10:55:41.913Z,95163.19
2022-11-29T10:58:56.147Z,95159.44
2022-11-29T11:02:00.554Z,95158.66
2022-11-29T11:05:05.073Z,95151.47
2022-11-29T11:08:18.945Z,95151.47
2022-11-29T11:11:28.288Z,95154.13
2022-11-29T11:14:33.112Z,95153.34
2022-11-29T11:17:37.696Z,95152.25
2022-11-29T11:20:44.409Z,95158.34
2022-11-29T11:23:55.557Z,95157.56
2022-11-29T11:27:01.618Z,95155.22
2022-11-29T11:30:06.683Z,95159.44
2022-11-29T11:33:19.263Z,95155.78
2022-11-29T11:39:33.630Z,95167.91
2022-11-29T11:42:42.838Z,95155.22
2022-11-29T11:45:53.609Z,95169.47
2022-11-29T11:52:01.420Z,95166.81
2022-11-29T11:58:21.176Z,95157.28
2022-11-29T12:01:31.047Z,95164.94
2022-11-29T12:04:37.982Z,95168.88
2022-11-29T12:08:07.421Z,95159.63
2022-11-29T12:11:14.127Z,95161.69
2022-11-29T12:14:25.306Z,95156.66
2022-11-29T12:17:35.333Z,95153.72
2022-11-29T12:20:41.863Z,95159.03
2022-11-29T12:23:49.198Z,95150.28
2022-11-29T12:26:58.239Z,95148.09
2022-11-29T12:30:03.163Z,95149.97
2022-11-29T12:33:26.243Z,95143.97
2022-11-29T12:36:38.722Z,95148.69
2022-11-29T12:42:58.556Z,95151.28
2022-11-29T12:46:10.437Z,95140.72
2022-11-29T12:49:24.318Z,95150.75
2022-11-29T12:52:37.119Z,95158.25
2022-11-29T12:55:50.684Z,95147.59
2022-11-29T13:02:22.672Z,95155.59
2022-11-29T13:05:38.456Z,95136.41
2022-11-29T13:08:58.565Z,95159.03
2022-11-29T13:12:09.508Z,95157.47
2022-11-29T13:15:16.764Z,95159.03
2022-11-29T13:18:27.830Z,95165.16
2022-11-29T13:21:38.281Z,95166.72
2022-11-29T13:24:45.265Z,95167.50
2022-11-29T13:27:58.505Z,95160.91
2022-11-29T13:31:03.698Z,95167.50
2022-11-29T13:34:14.451Z,95169.38
2022-11-29T13:37:25.053Z,95171.56
2022-11-29T13:40:38.792Z,95168.59
2022-11-29T13:43:50.689Z,95170.47
2022-11-29T13:47:03.791Z,95167.50
2022-11-29T13:50:39.308Z,95178.94
2022-11-29T13:53:48.787Z,95175.78
2022-11-29T13:57:03.193Z,95170.28
2022-11-29T14:00:07.884Z,95170.16
2022-11-29T14:03:33.928Z,95173.63
2022-11-29T14:06:40.143Z,95173.41
2022-11-29T14:09:49.669Z,95173.41
2022-11-29T14:12:57.696Z,95181.09
2022-11-29T14:16:05.194Z,95177.66
2022-11-29T14:19:23.264Z,95170.47
2022-11-29T14:22:27.772Z,95177.97
2022-11-29T14:28:54.453Z,95174.13
2022-11-29T14:31:57.482Z,95173.13
2022-11-29T14:35:06.111Z,95177.97
2022-11-29T14:38:19.371Z,95175.00
2022-11-29T14:41:29.927Z,95177.97
2022-11-29T14:47:39.059Z,95187.50
2022-11-29T14:50:42.473Z,95187.03
2022-11-29T14:53:49.391Z,95178.75
2022-11-29T14:56:52.704Z,95184.06
2022-11-29T15:06:13.543Z,95185.44
2022-11-29T15:12:27.373Z,95179.94
2022-11-29T15:15:54.368Z,95182.78
2022-11-29T15:22:17.080Z,95182.28
2022-11-29T15:25:23.146Z,95182.78
2022-11-29T15:28:28.116Z,95180.13
2022-11-29T15:31:31.403Z,95189.19
2022-11-29T15:34:38.081Z,95180.91
2022-11-29T15:37:44.630Z,95187.31
2022-11-29T15:40:55.389Z,95185.44
2022-11-29T15:44:00.124Z,95188.91
2022-11-29T15:47:23.557Z,95186.53
2022-11-29T15:50:28.404Z,95183.88
2022-11-29T15:53:36.806Z,95189.19
2022-11-29T15:56:45.695Z,95185.06
2022-11-29T15:59:52.552Z,95189.19
2022-11-29T16:03:01.138Z,95181.22
2022-11-29T16:06:09.797Z,95189.19
2022-11-29T16:09:17.023Z,95175.88
2022-11-29T16:12:21.513Z,95170.38
2022-11-29T16:15:29.206Z,95167.81
2022-11-29T16:18:32.275Z,95186.34
2022-11-29T16:21:35.331Z,95179.75
2022-11-29T16:24:39.283Z,95184.28
2022-11-29T16:27:44.236Z,95185.06
2022-11-29T16:30:47.482Z,95185.53
2022-11-29T16:33:54.109Z,95193.53
2022-11-29T16:37:02.388Z,95188.81
2022-11-29T16:40:06.100Z,95189.50
2022-11-29T16:43:23.695Z,95191.84
2022-11-29T16:46:44.404Z,95186.44
2022-11-29T16:49:49.201Z,95188.00
2022-11-29T16:52:56.515Z,95188.00
2022-11-29T16:55:59.795Z,95185.94
2022-11-29T16:59:17.242Z,95192.03
2022-11-29T17:02:30.157Z,95182.78
2022-11-29T17:05:33.322Z,95178.25
2022-11-29T17:08:36.731Z,95182.00
2022-11-29T17:11:40.090Z,95183.28
2022-11-29T17:14:44.726Z,95180.72
2022-11-29T17:20:50.726Z,95185.94
2022-11-29T17:23:55.109Z,95185.94
2022-11-29T17:30:02.243Z,95192.34
2022-11-29T17:33:05.327Z,95196.56
2022-11-29T17:36:10.244Z,95199.22
2022-11-29T17:39:15.589Z,95200.03
2022-11-29T17:42:18.895Z,95200.81
2022-11-29T17:45:23.289Z,95205.53
2022-11-29T17:48:32.003Z,95210.81
2022-11-29T17:51:54.250Z,95218.22
2022-11-29T17:54:57.448Z,95221.25
2022-11-29T17:58:00.518Z,95220.38
2022-11-29T18:01:09.471Z,95218.72
2022-11-29T18:04:12.709Z,95215.56
2022-11-29T18:07:17.397Z,95218.03
2022-11-29T18:10:20.480Z,95216.41
2022-11-29T18:13:29.051Z,95223.34
2022-11-29T18:16:35.395Z,95226.00
2022-11-29T18:19:38.509Z,95228.66
2022-11-29T18:22:41.568Z,95229.72
2022-11-29T18:25:44.670Z,95229.72
2022-11-29T18:28:48.436Z,95224.41
2022-11-29T18:31:52.939Z,95230.03
2022-11-29T18:34:55.911Z,95225.50
2022-11-29T18:38:14.844Z,95226.28
2022-11-29T18:41:20.399Z,95217.03
2022-11-29T18:44:29.196Z,95224.63
2022-11-29T18:47:35.505Z,95223.84
2022-11-29T18:50:38.516Z,95216.72
2022-11-29T18:53:42.790Z,95213.56
2022-11-29T18:56:46.835Z,95211.69
2022-11-29T18:59:49.888Z,95209.53
2022-11-29T19:02:54.757Z,95208.97
2022-11-29T19:05:57.812Z,95213.75
2022-11-29T19:09:01.429Z,95208.44
2022-11-29T19:12:04.709Z,95199.47
2022-11-29T19:15:08.828Z,95216.34
2022-11-29T19:18:13.280Z,95220.59
2022-11-29T19:21:18.226Z,95216.84
2022-11-29T19:24:21.326Z,95219.50
2022-11-29T19:27:26.115Z,95223.94
2022-11-29T19:30:29.158Z,95225.50
2022-11-29T19:33:34.457Z,95230.81
2022-11-29T19:36:42.646Z,95231.91
2022-11-29T19:39:46.473Z,95225.59
2022-11-29T19:42:50.273Z,95233.41
2022-11-29T19:45:53.276Z,95225.41
2022-11-29T19:48:59.306Z,95233.78
2022-11-29T19:52:02.363Z,95227.56
2022-11-29T19:55:05.747Z,95226.59
2022-11-29T19:58:08.705Z,95226.28
2022-11-29T20:01:14.569Z,95233.78
2022-11-29T20:04:19.058Z,95227.38
2022-11-29T20:07:22.169Z,95234.38
2022-11-29T20:10:25.471Z,95227.38
2022-11-29T20:13:28.516Z,95227.06
2022-11-29T20:16:32.557Z,95222.53
2022-11-29T20:19:36.994Z,95224.13
2022-11-29T20:22:40.301Z,95219.38
2022-11-29T20:25:49.278Z,95223.81
2022-11-29T20:28:52.704Z,95215.25
2022-11-29T20:31:55.799Z,95208.56
2022-11-29T20:35:02.599Z,95204.13
2022-11-29T20:38:14.948Z,95210.13
2022-11-29T20:41:23.844Z,95212.78
2022-11-29T20:44:37.811Z,95215.84
2022-11-29T20:47:50.500Z,95213.88
2022-11-29T20:50:59.973Z,95209.22
2022-11-29T20:54:03.019Z,95204.56
2022-11-29T20:57:06.007Z,95207.72
2022-11-29T21:00:11.685Z,95204.66
2022-11-29T21:03:15.404Z,95206.72
2022-11-29T21:06:19.891Z,95202.38
2022-11-29T21:09:22.928Z,95194.06
2022-11-29T21:12:26.459Z,95189.56
2022-11-29T21:15:30.170Z,95198.03
2022-11-29T21:18:34.168Z,95199.34
2022-11-29T21:21:46.521Z,95189.97
2022-11-29T21:24:57.825Z,95198.94
2022-11-29T21:28:02.052Z,95195.28
2022-11-29T21:31:05.899Z,95203.16
2022-11-29T21:34:09.566Z,95198.75
2022-11-29T21:37:15.283Z,95201.00
2022-11-29T21:40:18.512Z,95191.16
2022-11-29T21:43:32.692Z,95193.72
2022-11-29T21:46:44.709Z,95189.47
2022-11-29T21:49:48.040Z,95195.78
2022-11-29T21:52:53.924Z,95187.59
2022-11-29T21:55:58.299Z,95192.16
2022-11-29T21:59:01.423Z,95191.53
2022-11-29T22:02:05.063Z,95183.84
2022-11-29T22:05:10.122Z,95186.50
2022-11-29T22:08:14.694Z,95192.31
2022-11-29T22:11:30.919Z,95168.53
2022-11-29T22:14:34.163Z,95188.88
2022-11-29T22:17:37.208Z,95184.63
2022-11-29T22:20:40.231Z,95182.63
2022-11-29T22:23:44.683Z,95172.59
2022-11-29T22:26:48.431Z,95174.75
2022-11-29T22:29:51.471Z,95175.56
2022-11-29T22:32:56.703Z,95176.63
2022-11-29T22:36:04.390Z,95167.06
2022-11-29T22:39:09.648Z,95167.06
2022-11-29T22:42:12.775Z,95164.41
2022-11-29T22:45:15.842Z,95163.94
2022-11-29T22:48:19.081Z,95163.63
2022-11-29T22:51:24.263Z,95158.28
2022-11-29T22:54:29.502Z,95157.50
2022-11-29T22:57:32.543Z,95153.84
2022-11-29T23:00:42.242Z,95149.22
2022-11-29T23:03:48.196Z,95160.97
2022-11-29T23:06:51.234Z,95153.75
2022-11-29T23:09:56.238Z,95153.28
2022-11-29T23:12:59.313Z,95139.84
2022-11-29T23:16:02.972Z,95160.34
2022-11-29T23:19:05.997Z,95158.78
2022-11-29T23:22:09.065Z,95152.66
2022-11-29T23:25:13.538Z,95151.09
2022-11-29T23:28:16.825Z,95159.56
2022-11-29T23:31:20.341Z,95158.97
2022-11-29T23:34:23.466Z,95156.59
2022-11-29T23:37:26.724Z,95158.97
2022-11-29T23:40:31.167Z,95150.47
2022-11-29T23:43:35.938Z,95144.75
2022-11-29T23:46:39.065Z,95153.94
2022-11-29T23:49:42.112Z,95149.69
2022-11-29T23:52:45.192Z,95165.06
2022-11-29T23:55:58.459Z,95138.84
2022-11-29T23:59:01.518Z,95148.31
